Time;durP1;ratioP1;P1;durP2;ratioP2;P2;SDS_P1;SDS_P2;PMS_P1;PMS_P2;Temp;Humidity;BMP_temperature;BMP_pressure;BME280_temperature;BME280_humidity;BME280_pressure;Samples;Min_cycle;Max_cycle;Signal;HPM_P1;HPM_P2
2023/02/26 00:00:12;;;;;;;6.50;4.50;;;-0.20;99.90;;;0.20;93.88;97370.34;5219732;28;20230;-60
2023/02/26 00:02:47;;;;;;;4.67;4.07;;;-0.30;99.90;;;0.29;94.75;97373.69;5215723;28;20217;-61
2023/02/26 00:05:20;;;;;;;4.17;3.60;;;-0.30;99.90;;;0.34;94.37;97377.44;5218061;28;20204;-61
2023/02/26 00:07:55;;;;;;;6.03;4.60;;;-0.20;99.90;;;0.24;94.59;97372.38;5218286;28;20196;-61
2023/02/26 00:10:28;;;;;;;5.03;4.73;;;-0.30;99.90;;;0.24;94.89;97377.41;5220924;28;20651;-60
2023/02/26 00:13:02;;;;;;;4.43;4.13;;;-0.30;99.90;;;0.24;95.15;97382.44;5217122;28;20199;-61
2023/02/26 00:15:35;;;;;;;5.57;4.47;;;-0.30;99.90;;;0.41;94.77;97382.28;5215512;28;20555;-60
2023/02/26 00:18:15;;;;;;;6.43;4.70;;;-0.20;99.90;;;0.43;94.20;97380.81;5217261;28;20288;-60
2023/02/26 00:20:48;;;;;;;5.13;4.60;;;-0.20;99.90;;;0.37;94.94;97387.81;5221020;28;20252;-61
2023/02/26 00:23:24;;;;;;;5.00;4.63;;;-0.20;99.90;;;0.40;96.31;97390.59;5221852;28;20223;-61
2023/02/26 00:25:58;;;;;;;5.50;5.00;;;-0.20;99.90;;;0.29;93.65;97386.25;5219702;28;20214;-61
2023/02/26 00:28:32;;;;;;;5.00;4.70;;;-0.30;99.90;;;0.29;95.82;97391.28;5219346;28;20214;-60
2023/02/26 00:31:06;;;;;;;5.60;4.90;;;-0.30;99.90;;;0.33;95.71;97385.75;5215092;28;20205;-59
2023/02/26 00:33:40;;;;;;;5.37;4.87;;;-0.30;99.90;;;0.34;97.05;97395.03;5217568;28;20267;-60
2023/02/26 00:36:22;;;;;;;4.77;4.37;;;-0.30;99.90;;;0.37;96.78;97395.34;5220965;28;20730;-61
2023/02/26 00:39:16;;;;;;;5.40;4.90;;;-0.30;99.90;;;0.33;96.79;97390.78;5211538;28;20226;-60
2023/02/26 00:41:49;;;;;;;5.23;4.80;;;-0.40;99.90;;;0.38;95.96;97394.59;5217076;28;20214;-60
2023/02/26 00:44:23;;;;;;;5.70;5.20;;;-0.30;99.90;;;0.38;96.40;97397.09;5218877;28;20714;-60
2023/02/26 00:47:02;;;;;;;5.60;5.10;;;-0.30;99.90;;;0.38;97.46;97392.06;5215076;28;20201;-60
2023/02/26 00:49:52;;;;;;;7.77;6.37;;;-0.30;99.90;;;0.39;97.82;97398.84;5222183;28;20233;-59
2023/02/26 00:52:35;;;;;;;6.37;5.77;;;-0.30;99.90;;;0.36;97.11;97398.59;5220050;28;21646;-61
2023/02/26 00:55:10;;;;;;;5.73;5.17;;;-0.40;99.90;;;0.40;97.61;97403.16;5221358;28;20701;-61
2023/02/26 00:57:43;;;;;;;6.37;5.87;;;-0.30;99.90;;;0.38;98.39;97399.63;5222671;28;20215;-61
2023/02/26 01:00:17;;;;;;;6.40;5.80;;;-0.30;99.90;;;0.35;98.13;97398.47;5221799;28;20231;-60
2023/02/26 01:02:51;;;;;;;6.13;5.47;;;-0.30;99.90;;;0.35;98.49;97406.88;5220230;28;20389;-60
2023/02/26 01:05:25;;;;;;;5.90;4.80;;;-0.40;99.90;;;0.33;99.28;97415.03;5222919;28;20216;-60
2023/02/26 01:08:05;;;;;;;5.87;5.23;;;-0.30;99.90;;;0.30;99.28;97408.09;5219845;28;20204;-60
2023/02/26 01:10:41;;;;;;;5.93;5.37;;;-0.30;99.90;;;0.24;98.90;97407.56;5223328;28;20222;-60
2023/02/26 01:13:14;;;;;;;6.13;5.63;;;-0.30;99.90;;;0.25;99.49;97404.28;5220127;28;20200;-60
2023/02/26 01:15:52;;;;;;;6.57;5.90;;;-0.30;99.90;;;0.22;100.00;97404.03;5223201;28;20668;-61
2023/02/26 01:18:33;;;;;;;7.03;6.43;;;-0.30;99.90;;;0.22;99.58;97411.56;5224784;28;20288;-61
2023/02/26 01:21:14;;;;;;;6.30;5.73;;;-0.30;99.90;;;0.22;100.00;97407.41;5221219;28;20214;-60
2023/02/26 01:23:51;;;;;;;7.73;6.93;;;-0.40;99.90;;;0.17;99.61;97410.25;5218605;28;20757;-60
2023/02/26 01:26:29;;;;;;;7.67;6.90;;;-0.40;99.90;;;0.08;98.66;97404.44;5220173;28;20207;-61
2023/02/26 01:29:02;;;;;;;6.30;5.70;;;-0.50;99.90;;;-0.04;97.67;97400.06;5223472;28;20232;-60
2023/02/26 01:31:43;;;;;;;6.20;5.70;;;-0.70;99.90;;;0.01;98.15;97408.03;5218023;28;20560;-60
2023/02/26 01:34:23;;;;;;;5.70;5.30;;;-0.70;99.90;;;-0.04;97.86;97405.09;5222673;28;20203;-60
2023/02/26 01:37:03;;;;;;;5.40;4.93;;;-0.70;99.90;;;-0.03;98.22;97400.94;5219811;28;20598;-59
2023/02/26 01:39:43;;;;;;;5.60;5.17;;;-0.70;99.90;;;-0.05;98.31;97408.38;5221076;28;20224;-60
2023/02/26 01:42:21;;;;;;;5.83;5.30;;;-0.70;99.90;;;-0.06;98.71;97401.59;5219954;28;20234;-61
2023/02/26 01:45:00;;;;;;;5.37;4.70;;;-0.80;99.90;;;-0.08;98.84;97404.69;5220847;28;20309;-60
2023/02/26 01:47:41;;;;;;;6.17;4.97;;;-0.80;99.90;;;-0.10;97.92;97409.56;5220799;28;20294;-61
2023/02/26 01:50:18;;;;;;;5.57;5.10;;;-0.90;99.90;;;-0.10;98.36;97412.06;5222337;28;20223;-60
2023/02/26 01:53:23;;;;;;;5.93;5.43;;;-0.90;99.90;;;-0.14;99.10;97422.59;5221494;28;20233;-60
2023/02/26 01:56:00;;;;;;;5.30;4.80;;;-0.80;99.90;;;-0.18;100.00;97415.53;5220695;28;20195;-61
2023/02/26 01:58:36;;;;;;;7.10;6.50;;;-0.90;99.90;;;-0.20;99.64;97417.03;5219619;28;20310;-60
2023/02/26 02:01:09;;;;;;;5.87;5.37;;;-0.90;99.90;;;-0.22;99.38;97418.50;5220245;28;20217;-60
2023/02/26 02:03:44;;;;;;;5.87;5.43;;;-0.90;99.90;;;-0.25;99.97;97418.25;5221467;28;20210;-59
2023/02/26 02:06:21;;;;;;;6.43;5.27;;;-0.90;99.90;;;-0.27;100.00;97419.72;5220386;28;20572;-59
2023/02/26 02:08:55;;;;;;;6.83;5.60;;;-1.00;99.90;;;-0.31;100.00;97420.19;5220423;28;20749;-61
2023/02/26 02:11:28;;;;;;;5.03;4.53;;;-1.00;99.90;;;-0.38;100.00;97420.38;5218257;28;20213;-61
2023/02/26 02:14:12;;;;;;;5.67;5.27;;;-1.10;99.90;;;-0.39;100.00;97423.63;5221757;28;20226;-61
2023/02/26 02:16:54;;;;;;;4.83;4.53;;;-1.10;99.90;;;-0.44;98.78;97419.81;5218469;28;20221;-60
2023/02/26 02:20:12;;;;;;;5.20;4.70;;;-1.20;99.90;;;-0.55;100.00;97427.22;5220442;28;20644;-59
2023/02/26 02:23:08;;;;;;;5.70;5.30;;;-1.30;99.90;;;-0.60;98.75;97423.44;5220862;28;20208;-59
2023/02/26 02:26:26;;;;;;;5.43;4.67;;;-1.30;99.90;;;-0.67;99.44;97423.59;5220339;28;20294;-58
2023/02/26 02:29:51;;;;;;;5.00;4.70;;;-1.40;99.90;;;-0.73;99.51;97430.56;5219533;28;20217;-57
2023/02/26 02:32:31;;;;;;;4.57;4.17;;;-1.40;99.90;;;-0.88;98.30;97434.16;5205145;28;20224;-59
2023/02/26 02:35:12;;;;;;;5.50;5.10;;;-1.50;99.90;;;-0.92;98.85;97435.47;5222054;28;20194;-59
2023/02/26 02:37:52;;;;;;;5.37;4.90;;;-1.60;99.90;;;-0.87;99.74;97431.78;5217498;28;20201;-58
2023/02/26 02:40:30;;;;;;;5.80;5.40;;;-1.60;99.90;;;-0.86;100.00;97440.19;5220009;28;20225;-59
2023/02/26 02:43:07;;;;;;;5.93;5.33;;;-1.50;99.90;;;-0.88;100.00;97439.19;5219437;28;20193;-61
2023/02/26 02:45:45;;;;;;;5.37;5.07;;;-1.60;99.90;;;-0.89;100.00;97439.91;5214722;28;20665;-58
2023/02/26 02:48:25;;;;;;;5.47;4.77;;;-1.60;99.90;;;-0.91;100.00;97438.13;5220605;28;20216;-57
2023/02/26 02:51:01;;;;;;;5.20;4.80;;;-1.60;99.90;;;-0.87;100.00;97441.81;5219209;28;20225;-60
2023/02/26 02:53:38;;;;;;;4.93;4.63;;;-1.60;99.90;;;-0.89;100.00;97442.41;5218061;28;20668;-58
2023/02/26 02:56:17;;;;;;;5.60;5.13;;;-1.60;99.90;;;-0.94;100.00;97439.47;5221494;28;20193;-59
2023/02/26 02:58:55;;;;;;;5.43;4.93;;;-1.60;99.90;;;-1.03;100.00;97439.50;5217110;28;20319;-59
2023/02/26 03:01:29;;;;;;;8.50;7.13;;;-1.70;99.90;;;-1.08;100.00;97440.69;5219292;28;20208;-56
2023/02/26 03:04:08;;;;;;;8.03;7.23;;;-1.70;99.90;;;-1.13;100.00;97441.88;5219558;28;20202;-58
2023/02/26 03:06:42;;;;;;;6.07;5.50;;;-1.80;99.90;;;-1.13;100.00;97444.38;5217411;28;20643;-58
2023/02/26 03:09:15;;;;;;;5.70;5.23;;;-1.80;99.90;;;-1.20;100.00;97447.06;5220604;28;20323;-57
2023/02/26 03:11:48;;;;;;;5.30;4.80;;;-1.80;99.90;;;-1.21;100.00;97445.28;5219246;28;20242;-59
2023/02/26 03:14:22;;;;;;;5.83;5.33;;;-1.90;99.90;;;-1.37;100.00;97450.47;5219186;28;20204;-60
2023/02/26 03:17:20;;;;;;;5.63;5.23;;;-2.00;99.90;;;-1.30;100.00;97450.28;5213311;28;20603;-60
2023/02/26 03:20:09;;;;;;;6.53;5.00;;;-1.90;99.90;;;-1.32;100.00;97448.38;5218468;28;20221;-57
2023/02/26 03:22:53;;;;;;;5.10;4.60;;;-2.00;99.90;;;-1.28;100.00;97460.50;5218805;28;20204;-57
2023/02/26 03:25:31;;;;;;;5.27;4.77;;;-2.00;99.90;;;-1.23;100.00;97461.78;5219943;28;20205;-59
2023/02/26 03:28:14;;;;;;;5.83;5.33;;;-2.00;99.90;;;-1.23;100.00;97469.31;5217444;28;20298;-58
2023/02/26 03:30:55;;;;;;;5.07;4.73;;;-1.90;99.90;;;-1.17;100.00;97472.44;5218416;28;20224;-58
2023/02/26 03:33:37;;;;;;;7.13;5.40;;;-1.90;99.90;;;-1.25;99.59;97475.81;5218078;28;20323;-58
2023/02/26 03:36:19;;;;;;;5.63;5.07;;;-2.00;99.90;;;-1.28;100.00;97475.53;5221090;28;20206;-59
2023/02/26 03:38:57;;;;;;;6.30;5.80;;;-2.00;99.90;;;-1.36;100.00;97477.28;5218710;28;20626;-57
2023/02/26 03:41:36;;;;;;;6.93;6.23;;;-2.00;99.90;;;-1.40;100.00;97480.25;5220179;28;20208;-58
2023/02/26 03:44:14;;;;;;;6.30;5.80;;;-2.00;99.90;;;-1.45;100.00;97482.31;5218760;28;20213;-58
2023/02/26 03:46:53;;;;;;;6.93;6.33;;;-2.10;99.90;;;-1.54;100.00;97481.41;5216047;28;20414;-59
2023/02/26 03:49:31;;;;;;;6.90;6.27;;;-2.20;99.90;;;-1.52;100.00;97479.94;5219433;28;20221;-57
2023/02/26 03:52:06;;;;;;;6.97;6.40;;;-2.10;99.90;;;-1.48;100.00;97483.63;5218906;28;20201;-55
2023/02/26 03:54:46;;;;;;;5.93;5.53;;;-2.10;99.90;;;-1.38;100.00;97489.66;5220820;28;20211;-56
2023/02/26 03:57:19;;;;;;;6.80;6.20;;;-2.10;99.90;;;-1.34;100.00;97489.94;5214638;28;20205;-60
2023/02/26 03:59:53;;;;;;;7.23;6.70;;;-2.10;99.90;;;-1.43;99.40;97502.47;5215268;28;20236;-55
2023/02/26 04:02:31;;;;;;;6.00;5.60;;;-2.20;99.90;;;-1.40;98.83;97500.31;5209805;28;20219;-58
2023/02/26 04:05:11;;;;;;;6.60;5.97;;;-2.20;99.90;;;-1.43;100.00;97505.00;5218738;28;20302;-58
2023/02/26 04:07:48;;;;;;;5.30;4.90;;;-2.20;99.90;;;-1.52;99.71;97510.00;5217763;28;20292;-59
2023/02/26 04:10:31;;;;;;;6.23;5.73;;;-2.20;99.90;;;-1.64;100.00;97511.31;5219727;28;20705;-58
2023/02/26 04:13:04;;;;;;;6.07;5.53;;;-2.30;99.90;;;-1.64;100.00;97513.81;5218584;28;20212;-58
2023/02/26 04:15:38;;;;;;;7.37;5.90;;;-2.30;99.90;;;-1.67;100.00;97506.00;5214976;28;20202;-58
2023/02/26 04:18:11;;;;;;;6.53;6.03;;;-2.30;99.90;;;-1.67;100.00;97506.00;5214721;28;20204;-58
2023/02/26 04:20:44;;;;;;;6.70;6.20;;;-2.30;99.90;;;-1.68;100.00;97514.28;5220577;28;20221;-59
2023/02/26 04:23:19;;;;;;;6.03;5.53;;;-2.40;99.90;;;-1.77;100.00;97521.78;5221710;28;20197;-58
2023/02/26 04:25:52;;;;;;;5.70;5.30;;;-2.40;99.90;;;-1.88;100.00;97513.19;5221129;28;20224;-59
2023/02/26 04:28:25;;;;;;;6.00;5.00;;;-2.50;99.90;;;-1.88;100.00;97528.22;5221751;28;20220;-58
2023/02/26 04:30:58;;;;;;;5.90;5.43;;;-2.60;99.90;;;-1.83;100.00;97524.56;5222702;28;20217;-59
2023/02/26 04:33:32;;;;;;;5.10;4.70;;;-2.50;99.90;;;-1.88;100.00;97520.72;5221777;28;20208;-56
2023/02/26 04:36:05;;;;;;;4.83;4.43;;;-2.50;99.90;;;-1.88;100.00;97524.84;5223173;28;20200;-57
2023/02/26 04:38:40;;;;;;;4.80;4.40;;;-2.60;99.90;;;-1.99;98.64;97522.91;5221277;28;20215;-56
2023/02/26 04:41:13;;;;;;;4.77;4.37;;;-2.60;99.90;;;-2.18;99.38;97531.06;5223138;28;20283;-58
2023/02/26 04:43:46;;;;;;;5.33;4.50;;;-2.80;99.90;;;-2.16;99.58;97528.72;5222627;28;20243;-58
2023/02/26 04:46:19;;;;;;;4.10;3.80;;;-2.80;99.90;;;-2.16;99.82;97531.22;5220237;28;20229;-56
2023/02/26 04:48:52;;;;;;;4.47;3.93;;;-2.70;99.90;;;-2.14;99.90;97537.28;5220166;28;20696;-59
2023/02/26 04:51:25;;;;;;;4.67;4.37;;;-2.70;99.90;;;-2.11;99.51;97540.09;5224130;28;20229;-59
2023/02/26 04:54:00;;;;;;;4.40;4.03;;;-2.70;99.90;;;-2.07;100.00;97539.66;5221659;28;20571;-59
2023/02/26 04:56:33;;;;;;;4.97;4.53;;;-2.70;99.90;;;-2.04;99.63;97544.97;5218316;28;20291;-58
2023/02/26 04:59:06;;;;;;;4.67;4.27;;;-2.70;99.90;;;-2.00;100.00;97548.63;5222947;28;20221;-55
2023/02/26 05:01:39;;;;;;;4.40;4.00;;;-2.70;99.90;;;-2.09;100.00;97556.13;5218329;28;20208;-59
2023/02/26 05:04:12;;;;;;;6.20;4.63;;;-2.80;99.90;;;-2.22;99.26;97556.53;5218618;28;20554;-57
2023/02/26 05:06:45;;;;;;;4.97;4.53;;;-2.80;99.90;;;-2.27;100.00;97561.06;5220675;28;20692;-58
2023/02/26 05:09:20;;;;;;;4.80;4.50;;;-2.90;99.90;;;-2.29;99.51;97567.56;5221627;28;20951;-56
2023/02/26 05:11:53;;;;;;;4.80;4.40;;;-2.90;99.90;;;-2.37;98.32;97568.38;5222126;28;20648;-58
2023/02/26 05:14:26;;;;;;;6.53;4.40;;;-3.00;99.90;;;-2.41;99.17;97565.41;5221498;28;20236;-58
2023/02/26 05:16:59;;;;;;;4.33;4.03;;;-3.00;99.90;;;-2.41;99.21;97571.28;5217890;28;20200;-59
2023/02/26 05:19:33;;;;;;;5.20;4.80;;;-3.00;99.90;;;-2.42;99.06;97574.53;5221838;28;20267;-58
2023/02/26 05:22:06;;;;;;;4.80;4.43;;;-3.10;99.90;;;-2.60;97.19;97573.56;5219899;28;20206;-57
2023/02/26 05:24:41;;;;;;;4.60;4.30;;;-3.20;99.90;;;-2.79;97.47;97575.78;5220722;28;20194;-60
2023/02/26 05:27:14;;;;;;;5.57;5.17;;;-3.40;99.90;;;-2.68;98.24;97574.38;5219147;28;20334;-58
2023/02/26 05:29:47;;;;;;;4.90;4.60;;;-3.30;99.90;;;-2.66;99.31;97574.53;5221807;28;20244;-60
2023/02/26 05:32:20;;;;;;;6.57;5.23;;;-3.20;99.90;;;-2.66;99.59;97582.03;5221870;28;20209;-58
2023/02/26 05:34:53;;;;;;;4.53;4.13;;;-3.20;99.90;;;-2.60;99.96;97583.56;5222796;28;20232;-57
2023/02/26 05:37:26;;;;;;;5.00;4.57;;;-3.20;99.90;;;-2.51;99.75;97588.63;5218360;28;20645;-56
2023/02/26 05:40:01;;;;;;;4.57;4.27;;;-3.10;99.90;;;-2.52;100.00;97592.75;5225267;28;20278;-59
2023/02/26 05:42:34;;;;;;;4.70;4.40;;;-3.10;99.90;;;-2.55;99.66;97589.94;5220818;28;20200;-57
2023/02/26 05:45:09;;;;;;;5.03;4.57;;;-3.10;99.90;;;-2.56;100.00;97585.63;5221116;28;20200;-57
2023/02/26 05:47:42;;;;;;;5.37;4.87;;;-3.10;99.90;;;-2.50;99.77;97593.75;5219121;28;20256;-60
2023/02/26 05:50:15;;;;;;;5.03;4.63;;;-3.00;99.90;;;-2.46;100.00;97592.47;5222286;28;20220;-58
2023/02/26 05:52:48;;;;;;;4.77;4.47;;;-3.10;99.90;;;-2.40;99.66;97598.09;5213235;28;20206;-59
2023/02/26 05:55:23;;;;;;;4.67;4.03;;;-3.00;99.90;;;-2.35;100.00;97596.06;5209814;28;20193;-60
2023/02/26 05:57:56;;;;;;;5.23;4.83;;;-3.00;99.90;;;-2.19;97.91;97604.38;5216673;28;20197;-60
2023/02/26 06:00:29;;;;;;;4.90;4.47;;;-3.00;99.90;;;-2.19;98.15;97603.50;5215137;28;20220;-61
2023/02/26 06:03:02;;;;;;;4.67;4.37;;;-2.90;99.90;;;-2.15;98.26;97605.56;5213419;28;20304;-61
2023/02/26 06:05:36;;;;;;;5.30;4.87;;;-2.90;99.90;;;-2.12;98.19;97608.38;5217253;28;20505;-57
2023/02/26 06:08:10;;;;;;;5.43;4.93;;;-2.90;99.90;;;-2.06;97.52;97617.44;5216425;28;20201;-60
2023/02/26 06:10:45;;;;;;;5.33;4.83;;;-2.90;99.90;;;-2.05;98.26;97621.69;5216633;28;20299;-58
2023/02/26 06:13:18;;;;;;;6.23;5.23;;;-2.90;99.90;;;-2.10;98.33;97614.44;5217987;28;20706;-57
2023/02/26 06:15:52;;;;;;;5.83;5.20;;;-2.80;99.90;;;-2.16;99.76;97613.84;5212510;28;20228;-57
2023/02/26 06:18:26;;;;;;;5.43;4.93;;;-2.80;99.90;;;-2.15;99.84;97625.59;5215846;28;20615;-59
2023/02/26 06:20:59;;;;;;;5.73;5.17;;;-2.80;99.90;;;-2.09;100.00;97626.22;5219148;28;20208;-57
2023/02/26 06:23:32;;;;;;;5.20;4.73;;;-2.80;99.90;;;-2.07;100.00;97638.16;5216033;28;20205;-59
2023/02/26 06:26:06;;;;;;;5.17;4.67;;;-2.80;99.90;;;-2.08;100.00;97635.53;5214779;28;20347;-60
2023/02/26 06:28:40;;;;;;;5.63;5.13;;;-2.80;99.90;;;-2.04;100.00;97635.09;5215711;28;20209;-58
2023/02/26 06:31:13;;;;;;;5.60;5.10;;;-2.70;99.90;;;-1.98;100.00;97640.72;5215924;28;20197;-57
2023/02/26 06:33:46;;;;;;;4.87;4.50;;;-2.70;99.90;;;-1.87;99.59;97642.69;5215085;28;20205;-60
2023/02/26 06:36:19;;;;;;;5.10;4.67;;;-2.60;99.90;;;-1.84;99.66;97649.63;5215541;28;20189;-59
2023/02/26 06:38:52;;;;;;;5.07;4.67;;;-2.60;99.90;;;-1.81;99.11;97658.31;5218524;28;20217;-58
2023/02/26 06:41:27;;;;;;;5.10;4.70;;;-2.60;99.90;;;-1.74;98.65;97658.97;5216180;28;20562;-56
2023/02/26 06:44:00;;;;;;;5.50;4.33;;;-2.60;99.90;;;-1.74;98.07;97662.34;5216138;28;20774;-58
2023/02/26 06:46:33;;;;;;;4.67;4.27;;;-2.60;99.90;;;-1.77;98.99;97662.03;5214170;28;20339;-59
2023/02/26 06:49:06;;;;;;;5.53;5.23;;;-2.50;99.90;;;-1.64;97.74;97664.13;5217333;28;20228;-55
2023/02/26 06:51:39;;;;;;;5.20;4.77;;;-2.50;99.90;;;-1.63;97.33;97665.91;5216888;28;20730;-59
2023/02/26 06:54:12;;;;;;;6.30;5.70;;;-2.40;99.90;;;-1.55;97.68;97680.09;5215988;28;20208;-55
2023/02/26 06:56:47;;;;;;;5.97;5.50;;;-2.40;99.90;;;-1.45;97.59;97670.25;5208365;28;20220;-57
2023/02/26 06:59:20;;;;;;;5.03;4.63;;;-2.30;99.90;;;-1.37;96.62;97676.91;5214730;28;20236;-59
2023/02/26 07:01:53;;;;;;;5.20;4.80;;;-2.30;99.90;;;-1.12;95.88;97679.31;5208527;28;20291;-56
2023/02/26 07:04:26;;;;;;;5.43;5.00;;;-2.20;99.90;;;-1.15;98.54;97684.03;5210647;28;20229;-57
2023/02/26 07:06:59;;;;;;;5.57;4.60;;;-2.00;99.90;;;-1.09;96.69;97689.66;5212173;28;20217;-57
2023/02/26 07:09:32;;;;;;;6.23;5.50;;;-2.00;99.90;;;-1.15;98.65;97694.94;5217481;28;20723;-56
2023/02/26 07:12:07;;;;;;;6.07;5.67;;;-2.00;99.90;;;-1.12;98.29;97694.38;5218651;28;20211;-58
2023/02/26 07:14:41;;;;;;;7.30;5.33;;;-2.00;99.90;;;-1.06;97.46;97700.00;5214202;28;20204;-61
2023/02/26 07:17:19;;;;;;;5.40;4.90;;;-1.90;99.90;;;-1.03;98.63;97697.81;5211331;28;20259;-57
2023/02/26 07:19:53;;;;;;;6.23;5.57;;;-1.90;99.90;;;-0.94;98.22;97708.72;5212219;28;20512;-55
2023/02/26 07:22:26;;;;;;;5.67;5.27;;;-1.90;99.90;;;-0.86;98.14;97703.56;5213429;28;20216;-62
2023/02/26 07:24:59;;;;;;;6.30;5.83;;;-2.00;99.90;;;-0.98;97.72;97704.13;5212469;28;20610;-59
2023/02/26 07:27:34;;;;;;;6.30;5.70;;;-2.00;99.90;;;-0.95;98.42;97709.44;5212688;28;20225;-59
2023/02/26 07:30:09;;;;;;;6.13;5.63;;;-1.90;99.90;;;-0.95;99.20;97706.94;5215692;28;20221;-60
2023/02/26 07:32:42;;;;;;;6.03;5.50;;;-1.90;99.90;;;-0.79;98.04;97711.84;5215007;28;20646;-59
2023/02/26 07:35:16;;;;;;;6.83;6.23;;;-1.70;99.90;;;-0.73;97.91;97714.06;5213868;28;20202;-61
2023/02/26 07:37:49;;;;;;;8.77;7.97;;;-1.60;99.90;;;-0.67;99.13;97707.13;5219974;28;20198;-60
2023/02/26 07:40:22;;;;;;;8.43;7.63;;;-1.60;99.90;;;-0.71;98.58;97705.97;5217354;28;20234;-60
2023/02/26 07:42:56;;;;;;;9.80;8.10;;;-1.50;99.90;;;-0.70;97.96;97716.88;5217439;28;20205;-60
2023/02/26 07:45:29;;;;;;;8.30;7.70;;;-1.50;99.90;;;-0.71;99.11;97712.59;5214144;28;20733;-61
2023/02/26 07:48:02;;;;;;;8.83;7.60;;;-1.50;99.90;;;-0.76;98.32;97714.66;5217479;28;20233;-60
2023/02/26 07:50:35;;;;;;;8.07;7.27;;;-1.50;99.90;;;-0.65;98.92;97720.72;5218504;28;20236;-60
2023/02/26 07:53:08;;;;;;;9.43;8.47;;;-1.50;99.90;;;-0.47;98.03;97719.09;5218106;28;20209;-61
2023/02/26 07:55:41;;;;;;;8.47;6.93;;;-1.30;99.90;;;-0.32;97.77;97715.53;5220745;28;20214;-60
2023/02/26 07:58:16;;;;;;;6.97;6.30;;;-1.20;99.90;;;-0.19;96.12;97716.75;5224599;28;20564;-60
2023/02/26 08:00:51;;;;;;;7.17;6.57;;;-1.00;99.90;;;-0.09;95.71;97717.75;5218437;28;20226;-60
2023/02/26 08:03:24;;;;;;;6.83;6.33;;;-1.00;99.90;;;-0.08;95.62;97714.50;5220678;28;20809;-60
2023/02/26 08:05:59;;;;;;;8.37;7.03;;;-1.00;99.90;;;-0.03;97.37;97727.47;5220400;28;20208;-59
2023/02/26 08:08:32;;;;;;;8.70;8.00;;;-0.90;99.90;;;0.15;97.45;97733.38;5219317;28;20222;-60
2023/02/26 08:11:05;;;;;;;8.37;7.67;;;-0.80;99.90;;;0.26;96.54;97725.25;5226376;28;20207;-60
2023/02/26 08:13:39;;;;;;;8.60;7.80;;;-0.80;99.90;;;0.26;96.75;97727.75;5222305;28;20215;-62
2023/02/26 08:16:12;;;;;;;8.23;7.37;;;-0.60;99.90;;;0.28;96.45;97743.84;5213240;28;20204;-59
2023/02/26 08:18:45;;;;;;;7.97;7.23;;;-0.60;99.90;;;0.33;94.76;97734.22;5223362;28;20231;-61
2023/02/26 08:21:18;;;;;;;8.47;7.67;;;-0.50;99.90;;;0.33;95.88;97735.09;5220313;28;20203;-63
2023/02/26 08:23:52;;;;;;;12.83;10.17;;;-0.50;99.90;;;0.46;94.80;97737.16;5225718;28;20203;-63
2023/02/26 08:26:26;;;;;;;9.70;8.80;;;-0.30;99.90;;;0.53;94.42;97736.97;5222416;28;20204;-64
2023/02/26 08:29:01;;;;;;;6.23;5.80;;;-0.20;99.90;;;0.29;90.60;97738.09;5219139;28;20232;-63
2023/02/26 08:31:34;;;;;;;7.30;5.47;;;-0.20;99.90;;;0.43;87.64;97734.34;5220074;28;20293;-65
2023/02/26 08:34:07;;;;;;;7.77;5.80;;;0.00;99.90;;;0.52;88.92;97735.22;5221659;28;20246;-63
2023/02/26 08:36:40;;;;;;;7.40;6.57;;;0.00;99.90;;;0.69;89.66;97731.75;5219399;28;20205;-63
2023/02/26 08:39:14;;;;;;;7.27;6.57;;;0.10;99.90;;;0.59;89.27;97729.13;5220205;28;20673;-63
2023/02/26 08:41:47;;;;;;;15.47;9.50;;;0.00;99.90;;;0.61;89.61;97742.72;5221882;28;20204;-63
2023/02/26 08:44:21;;;;;;;7.03;5.20;;;0.00;99.90;;;0.68;90.33;97745.94;5218624;28;20208;-62
2023/02/26 08:46:55;;;;;;;7.30;6.20;;;0.00;99.90;;;0.68;90.25;97750.94;5223473;28;20206;-63
2023/02/26 08:49:28;;;;;;;5.90;5.37;;;0.10;99.90;;;0.57;89.72;97753.22;5219903;28;20232;-62
2023/02/26 08:52:01;;;;;;;8.57;6.87;;;0.10;99.90;;;0.58;89.36;97748.34;5221408;28;20550;-63
2023/02/26 08:54:34;;;;;;;7.13;6.43;;;0.20;99.90;;;0.72;89.73;97754.66;5219630;28;20218;-63
2023/02/26 08:57:07;;;;;;;6.17;5.33;;;0.30;99.90;;;0.62;87.49;97757.06;5222092;28;20205;-62
2023/02/26 08:59:41;;;;;;;5.77;5.03;;;0.20;99.90;;;0.61;87.70;97760.31;5222237;28;20308;-62
2023/02/26 09:02:15;;;;;;;4.93;4.50;;;0.10;99.90;;;0.63;86.64;97762.25;5216835;28;20212;-63
2023/02/26 09:04:48;;;;;;;5.00;4.60;;;0.10;99.90;;;0.41;86.46;97766.00;5215419;28;20219;-62
2023/02/26 09:07:21;;;;;;;4.80;4.27;;;-0.10;99.90;;;0.19;87.41;97761.44;5220139;28;20193;-61
2023/02/26 09:09:54;;;;;;;5.23;4.73;;;-0.20;99.90;;;0.55;87.58;97758.13;5217250;28;20639;-62
2023/02/26 09:12:27;;;;;;;4.93;4.43;;;0.00;99.90;;;0.54;86.39;97770.53;5220640;28;20330;-62
2023/02/26 09:15:02;;;;;;;4.93;4.63;;;0.00;99.90;;;0.60;85.31;97777.03;5207765;28;20292;-62
2023/02/26 09:17:36;;;;;;;4.60;4.30;;;0.10;99.90;;;0.80;84.93;97771.34;5217326;28;20231;-62
2023/02/26 09:20:12;;;;;;;5.00;4.50;;;0.20;99.90;;;0.72;85.44;97779.81;5220576;28;20229;-62
2023/02/26 09:22:45;;;;;;;5.47;5.07;;;0.30;99.90;;;0.96;85.27;97782.81;5221360;28;20200;-62
2023/02/26 09:25:18;;;;;;;4.47;4.10;;;0.40;99.90;;;0.94;85.30;97779.28;5219747;28;20202;-61
2023/02/26 09:27:51;;;;;;;4.73;4.43;;;0.40;99.90;;;0.87;84.41;97781.22;5217777;28;20316;-63
2023/02/26 09:30:26;;;;;;;4.90;4.60;;;0.40;99.90;;;1.04;86.66;97785.31;5219292;28;20223;-62
2023/02/26 09:32:59;;;;;;;4.83;4.47;;;0.40;99.90;;;1.12;85.10;97788.53;5217422;28;20205;-62
2023/02/26 09:35:32;;;;;;;5.03;4.63;;;0.50;99.90;;;0.72;84.74;97789.00;5221321;28;20215;-63
2023/02/26 09:38:05;;;;;;;4.80;4.40;;;0.30;99.90;;;0.76;85.76;97803.63;5212163;28;20225;-62
2023/02/26 09:40:48;;;;;;;4.50;4.20;;;0.30;99.90;;;0.67;86.88;97803.66;5217603;28;20552;-62
2023/02/26 09:43:54;;;;;;;5.50;5.13;;;0.20;99.90;;;0.51;85.06;97795.41;5213930;28;20306;-63
2023/02/26 09:46:39;;;;;;;4.93;4.50;;;0.20;99.90;;;0.33;85.56;97810.50;5214314;28;20675;-62
2023/02/26 09:49:22;;;;;;;5.07;4.67;;;0.00;99.90;;;0.39;85.47;97811.09;5215531;28;20265;-62
2023/02/26 09:52:03;;;;;;;5.53;5.13;;;0.10;99.90;;;0.61;85.97;97820.69;5219198;28;20200;-62
2023/02/26 09:54:47;;;;;;;6.13;5.53;;;0.10;99.90;;;0.61;85.27;97818.16;5214486;28;20282;-61
2023/02/26 09:57:31;;;;;;;4.93;4.53;;;0.10;99.90;;;0.38;85.92;97819.38;5216484;28;20196;-62
2023/02/26 10:00:20;;;;;;;4.83;4.53;;;0.00;99.90;;;0.53;86.37;97814.91;5220940;28;20310;-62
2023/02/26 10:03:15;;;;;;;5.30;4.80;;;0.10;99.90;;;0.28;84.92;97823.38;5215040;28;20287;-63
2023/02/26 10:06:13;;;;;;;5.00;4.50;;;0.10;99.90;;;0.55;84.73;97818.47;5211294;28;20217;-63
2023/02/26 10:09:02;;;;;;;5.67;4.80;;;0.20;99.90;;;0.56;86.89;97816.84;5216782;28;20243;-63
2023/02/26 10:11:45;;;;;;;4.83;4.43;;;0.20;99.90;;;0.54;86.33;97823.34;5217491;28;20292;-63
2023/02/26 10:14:26;;;;;;;13.80;11.10;;;0.20;99.90;;;0.52;85.91;97823.22;5210844;28;20316;-62
2023/02/26 10:17:06;;;;;;;10.60;9.50;;;0.20;99.90;;;0.57;86.80;97828.66;5213228;28;20196;-62
2023/02/26 10:19:45;;;;;;;7.40;6.90;;;0.20;99.90;;;0.56;86.42;97824.38;5207462;28;20736;-63
2023/02/26 10:22:30;;;;;;;7.07;6.57;;;0.20;99.90;;;0.56;86.31;97834.44;5218032;28;20699;-63
2023/02/26 10:25:09;;;;;;;9.80;9.10;;;0.20;99.90;;;0.60;86.27;97832.38;5213834;28;20204;-62
2023/02/26 10:27:57;;;;;;;10.07;9.20;;;0.20;99.90;;;0.55;87.89;97832.69;5215071;28;20206;-63
2023/02/26 10:30:37;;;;;;;13.20;12.20;;;0.20;99.90;;;0.38;87.71;97839.50;5211867;28;20226;-63
2023/02/26 10:33:20;;;;;;;10.13;9.47;;;0.10;99.90;;;0.73;87.37;97841.06;5214970;28;20652;-63
2023/02/26 10:36:03;;;;;;;7.00;6.53;;;0.30;99.90;;;0.68;86.90;97841.50;5208058;28;20204;-63
2023/02/26 10:38:36;;;;;;;5.53;5.20;;;0.40;99.90;;;0.90;85.56;97838.50;5211974;28;20248;-63
2023/02/26 10:41:14;;;;;;;6.00;5.50;;;0.40;99.90;;;0.82;86.06;97832.72;5208937;28;20311;-62
2023/02/26 10:43:52;;;;;;;5.63;5.30;;;0.40;99.90;;;0.58;85.95;97838.00;5217513;28;20189;-64
2023/02/26 10:46:36;;;;;;;5.50;5.20;;;0.40;99.90;;;1.03;86.81;97827.91;5212928;28;20201;-62
2023/02/26 10:49:35;;;;;;;5.30;5.00;;;0.60;99.90;;;1.04;86.51;97838.16;5213178;28;20231;-62
2023/02/26 10:52:16;;;;;;;4.90;4.60;;;0.70;99.90;;;1.06;86.12;97838.28;5214386;28;20193;-63
2023/02/26 10:55:25;;;;;;;4.87;4.47;;;0.80;99.90;;;0.90;86.68;97834.34;5215347;28;20566;-63
2023/02/26 10:58:05;;;;;;;5.13;4.67;;;0.70;99.90;;;1.24;85.78;97837.47;5215856;28;20284;-63
2023/02/26 11:00:40;;;;;;;5.80;5.30;;;0.80;99.90;;;1.20;86.65;97835.41;5209792;28;20610;-63